Time;durP1;ratioP1;P1;durP2;ratioP2;P2;SDS_P1;SDS_P2;PMS_P1;PMS_P2;Temp;Humidity;BMP_temperature;BMP_pressure;BME280_temperature;BME280_humidity;BME280_pressure;Samples;Min_cycle;Max_cycle;Signal;HPM_P1;HPM_P2
2022/01/15 00:01:34;;;;;;;47.13;30.85;;;1.80;97.00;;;;;;5032709;28;20405;-48
2022/01/15 00:04:01;;;;;;;47.20;31.38;;;1.80;97.00;;;;;;5031275;28;20460;-46
2022/01/15 00:06:28;;;;;;;50.80;31.95;;;1.80;96.90;;;;;;5032430;28;20563;-46
2022/01/15 00:08:55;;;;;;;48.03;31.23;;;1.80;96.90;;;;;;5035930;28;20508;-48
2022/01/15 00:11:22;;;;;;;45.13;29.73;;;1.80;96.80;;;;;;5032830;28;20064;-45
2022/01/15 00:13:56;;;;;;;46.58;30.05;;;1.70;96.80;;;;;;5032790;28;20408;-48
2022/01/15 00:16:44;;;;;;;52.47;30.30;;;1.70;97.00;;;;;;5032578;28;20066;-48
2022/01/15 00:19:13;;;;;;;46.22;29.17;;;1.70;97.10;;;;;;5032606;28;20124;-47
2022/01/15 00:21:40;;;;;;;45.05;30.13;;;1.70;97.20;;;;;;5032410;28;20041;-47
2022/01/15 00:24:06;;;;;;;44.95;29.50;;;1.70;97.10;;;;;;5032806;28;20049;-48
2022/01/15 00:26:33;;;;;;;53.72;33.08;;;1.70;97.10;;;;;;5036336;28;20390;-49
2022/01/15 00:29:00;;;;;;;52.38;31.38;;;1.70;97.10;;;;;;5035118;28;20478;-45
2022/01/15 00:31:27;;;;;;;49.28;30.67;;;1.60;97.10;;;;;;5034873;28;20400;-46
2022/01/15 00:33:54;;;;;;;46.35;30.35;;;1.60;97.00;;;;;;5036499;28;20034;-46
2022/01/15 00:36:21;;;;;;;46.72;31.52;;;1.60;97.10;;;;;;5035015;28;20049;-49
2022/01/15 00:38:48;;;;;;;48.78;29.63;;;1.60;97.00;;;;;;5035675;28;20124;-46
2022/01/15 00:41:17;;;;;;;42.70;29.17;;;1.60;97.10;;;;;;5030230;28;20046;-45
2022/01/15 00:43:44;;;;;;;40.38;28.40;;;1.50;97.00;;;;;;5015657;28;20048;-46
2022/01/15 00:46:11;;;;;;;48.20;30.50;;;1.50;97.00;;;;;;5036073;28;20068;-45
2022/01/15 00:48:38;;;;;;;43.92;29.13;;;1.50;97.00;;;;;;5030038;28;20500;-49
2022/01/15 00:51:05;;;;;;;42.30;30.95;;;1.40;97.10;;;;;;5029849;28;20515;-47
2022/01/15 00:53:31;;;;;;;42.35;28.58;;;1.40;97.20;;;;;;5029887;28;20072;-49
2022/01/15 00:55:58;;;;;;;41.67;28.48;;;1.40;96.80;;;;;;5029624;28;20068;-46
2022/01/15 00:58:25;;;;;;;42.92;29.40;;;1.40;96.80;;;;;;5035808;28;20374;-53
2022/01/15 01:00:52;;;;;;;43.40;28.92;;;1.40;96.90;;;;;;5036026;28;20052;-46
2022/01/15 01:03:19;;;;;;;43.85;29.30;;;1.40;97.20;;;;;;5035839;28;20062;-48
2022/01/15 01:05:45;;;;;;;43.95;29.35;;;1.40;97.10;;;;;;5035687;28;20037;-48
2022/01/15 01:08:12;;;;;;;44.75;28.63;;;1.40;97.00;;;;;;5037119;28;20037;-45
2022/01/15 01:10:52;;;;;;;41.95;29.77;;;1.40;96.70;;;;;;5035755;28;20037;-47
2022/01/15 01:23:46;;;;;;;44.25;28.73;;;1.30;96.80;;;;;;5035770;28;20046;-43
2022/01/15 01:26:43;;;;;;;40.25;26.98;;;1.20;96.70;;;;;;5033929;28;20510;-46
2022/01/15 01:29:11;;;;;;;39.72;26.15;;;1.20;96.70;;;;;;5031175;28;20500;-47
2022/01/15 01:31:52;;;;;;;43.35;27.50;;;1.20;96.60;;;;;;5035345;28;20472;-47
2022/01/15 01:34:20;;;;;;;42.25;28.33;;;1.10;96.80;;;;;;5035467;28;20029;-46
2022/01/15 01:39:39;;;;;;;39.70;27.17;;;1.10;96.70;;;;;;5037738;28;20497;-46
2022/01/15 01:44:40;;;;;;;39.05;26.98;;;1.10;96.80;;;;;;5034914;28;20045;-50
2022/01/15 01:47:17;;;;;;;44.47;28.58;;;1.10;96.50;;;;;;5035013;28;20462;-49
2022/01/15 01:49:44;;;;;;;40.80;28.27;;;1.10;96.50;;;;;;5035037;28;20503;-49
2022/01/15 01:52:11;;;;;;;41.13;27.85;;;1.10;96.50;;;;;;5034975;28;20038;-45
2022/01/15 01:54:37;;;;;;;45.50;27.40;;;1.10;96.50;;;;;;5035509;28;20499;-46
2022/01/15 01:57:05;;;;;;;40.60;26.38;;;1.00;96.50;;;;;;5034616;28;20041;-52
2022/01/15 01:59:32;;;;;;;41.45;27.83;;;1.00;96.70;;;;;;5033541;28;20584;-48
2022/01/15 02:01:59;;;;;;;47.03;27.52;;;1.00;96.60;;;;;;5033538;28;20048;-50
2022/01/15 02:04:26;;;;;;;41.60;27.17;;;1.00;96.60;;;;;;5034739;28;20077;-47
2022/01/15 02:06:53;;;;;;;40.42;26.67;;;1.00;96.60;;;;;;5034687;28;20048;-51
2022/01/15 02:09:21;;;;;;;44.47;27.33;;;1.00;96.40;;;;;;5040977;28;20042;-48
2022/01/15 02:11:48;;;;;;;36.25;26.10;;;1.00;96.40;;;;;;5034526;28;20052;-46
2022/01/15 02:14:15;;;;;;;42.88;27.42;;;1.00;96.70;;;;;;5034501;28;20549;-49
2022/01/15 02:16:41;;;;;;;40.17;26.15;;;1.00;96.90;;;;;;5034418;28;20098;-52
2022/01/15 02:19:08;;;;;;;43.42;26.83;;;1.00;97.10;;;;;;5034454;28;20045;-48
2022/01/15 02:24:14;;;;;;;39.85;27.35;;;1.00;97.30;;;;;;5034248;28;20124;-50
2022/01/15 02:26:41;;;;;;;40.80;28.15;;;1.10;97.50;;;;;;5034083;28;20041;-49
2022/01/15 02:29:08;;;;;;;42.30;26.73;;;1.10;97.20;;;;;;5032973;28;20523;-50
2022/01/15 02:31:34;;;;;;;42.38;27.33;;;1.00;96.90;;;;;;5034147;28;20033;-44
2022/01/15 02:34:01;;;;;;;41.60;27.30;;;1.00;97.20;;;;;;5032811;28;20045;-47
2022/01/15 02:36:28;;;;;;;38.17;26.73;;;1.00;96.90;;;;;;5034128;28;20056;-48
2022/01/15 02:38:55;;;;;;;41.72;27.65;;;1.00;97.00;;;;;;5034508;28;20079;-47
2022/01/15 02:41:22;;;;;;;44.50;26.35;;;1.00;97.00;;;;;;5034413;28;20369;-45
2022/01/15 02:43:49;;;;;;;42.58;26.60;;;1.00;97.10;;;;;;5034448;28;20042;-46
2022/01/15 02:46:20;;;;;;;37.22;25.90;;;1.00;96.90;;;;;;5034550;28;20049;-46
2022/01/15 02:48:47;;;;;;;38.45;27.10;;;1.00;96.80;;;;;;5033375;28;20041;-50
2022/01/15 02:51:14;;;;;;;38.28;25.83;;;1.00;96.80;;;;;;5033678;28;20064;-46
2022/01/15 02:53:41;;;;;;;39.13;26.25;;;1.00;96.80;;;;;;5033619;28;20037;-45
2022/01/15 02:56:09;;;;;;;40.63;26.92;;;0.90;96.80;;;;;;5032363;28;20045;-50
2022/01/15 02:58:36;;;;;;;39.33;26.00;;;0.90;96.90;;;;;;5033551;28;20408;-47
2022/01/15 03:01:04;;;;;;;37.45;25.38;;;1.00;96.90;;;;;;5033943;28;20370;-46
2022/01/15 03:03:31;;;;;;;40.17;25.02;;;0.90;97.20;;;;;;5033461;28;20140;-44
2022/01/15 03:05:58;;;;;;;35.25;25.58;;;1.00;97.10;;;;;;5033368;28;20046;-46
2022/01/15 03:08:25;;;;;;;39.92;25.40;;;1.00;97.10;;;;;;5037562;28;20037;-46
2022/01/15 03:10:52;;;;;;;40.67;25.20;;;0.90;97.20;;;;;;5033530;28;20037;-47
2022/01/15 03:13:19;;;;;;;33.40;23.48;;;1.00;97.40;;;;;;5033302;28;20456;-47
2022/01/15 03:15:46;;;;;;;37.38;23.77;;;1.00;97.10;;;;;;5033408;28;20451;-44
2022/01/15 03:18:13;;;;;;;40.65;26.08;;;1.00;97.40;;;;;;5033178;28;20472;-47
2022/01/15 03:20:39;;;;;;;37.25;24.58;;;1.00;97.30;;;;;;5033147;28;20045;-45
2022/01/15 03:23:06;;;;;;;37.03;25.02;;;1.00;97.20;;;;;;5033146;28;20121;-47
2022/01/15 03:25:33;;;;;;;34.70;24.60;;;1.00;97.30;;;;;;5033088;28;20551;-47
2022/01/15 03:28:00;;;;;;;37.65;24.98;;;1.00;97.30;;;;;;5032943;28;20083;-47
2022/01/15 03:30:26;;;;;;;38.10;24.70;;;1.00;97.30;;;;;;5033058;28;20041;-45
2022/01/15 03:32:53;;;;;;;36.47;24.45;;;1.00;97.40;;;;;;5033008;28;20040;-50
2022/01/15 03:35:20;;;;;;;37.78;24.77;;;1.00;97.30;;;;;;5032993;28;20033;-49
2022/01/15 03:37:47;;;;;;;37.85;24.48;;;1.00;97.50;;;;;;5032766;28;20073;-47
2022/01/15 03:40:15;;;;;;;36.60;25.30;;;1.00;97.40;;;;;;5031574;28;20042;-46
2022/01/15 03:42:41;;;;;;;39.28;25.95;;;1.00;97.50;;;;;;5031661;28;20061;-47
2022/01/15 03:45:08;;;;;;;31.80;24.40;;;1.00;97.50;;;;;;5032833;28;20045;-48
2022/01/15 03:47:35;;;;;;;44.33;25.95;;;1.00;97.60;;;;;;5032638;28;20060;-50
2022/01/15 03:50:02;;;;;;;38.80;25.58;;;1.00;97.60;;;;;;5032853;28;20071;-44
2022/01/15 03:52:29;;;;;;;44.10;25.73;;;1.00;97.60;;;;;;5031456;28;20596;-46
2022/01/15 03:54:55;;;;;;;32.60;23.75;;;1.00;97.60;;;;;;5032821;28;20405;-47
2022/01/15 03:57:22;;;;;;;39.83;24.27;;;0.90;97.60;;;;;;5032669;28;20148;-48
2022/01/15 03:59:49;;;;;;;43.83;25.48;;;0.90;97.60;;;;;;5031230;28;20460;-46
2022/01/15 04:02:16;;;;;;;42.88;23.55;;;1.00;97.60;;;;;;5032653;28;20054;-49
2022/01/15 04:04:43;;;;;;;48.35;25.15;;;1.00;97.70;;;;;;5032896;28;20048;-44
2022/01/15 04:07:10;;;;;;;69.70;24.85;;;1.00;97.90;;;;;;5032659;28;20041;-45
2022/01/15 04:09:36;;;;;;;53.53;24.15;;;1.00;97.70;;;;;;5035205;28;20393;-46
2022/01/15 04:12:03;;;;;;;51.05;23.60;;;1.00;97.60;;;;;;5032501;28;20501;-48
2022/01/15 04:14:30;;;;;;;66.40;23.48;;;1.10;97.60;;;;;;5032550;28;20369;-45
2022/01/15 04:16:57;;;;;;;77.57;23.75;;;1.10;97.60;;;;;;5032441;28;20124;-46
2022/01/15 04:19:28;;;;;;;75.05;23.75;;;1.10;97.60;;;;;;5032460;28;20071;-48
2022/01/15 04:21:55;;;;;;;48.10;23.95;;;1.10;97.70;;;;;;5032584;28;20065;-45
2022/01/15 04:24:21;;;;;;;64.10;23.65;;;1.10;97.60;;;;;;5032409;28;20045;-48
2022/01/15 04:26:48;;;;;;;81.13;24.30;;;1.10;97.60;;;;;;5032373;28;20045;-49
2022/01/15 04:29:15;;;;;;;74.07;23.15;;;1.20;97.40;;;;;;5032364;28;20045;-47
2022/01/15 04:31:48;;;;;;;48.05;23.33;;;1.10;97.40;;;;;;5032392;28;20044;-48
2022/01/15 04:34:15;;;;;;;67.50;23.17;;;1.20;97.30;;;;;;5032432;28;20037;-47
2022/01/15 04:36:43;;;;;;;67.22;23.10;;;1.20;97.20;;;;;;5032222;28;20040;-52
2022/01/15 04:39:10;;;;;;;62.00;23.15;;;1.20;97.20;;;;;;5037016;28;20045;-47
2022/01/15 04:41:37;;;;;;;72.85;24.05;;;1.20;97.30;;;;;;5032308;28;20052;-49
2022/01/15 04:44:04;;;;;;;55.53;24.08;;;1.20;97.20;;;;;;5032325;28;20042;-46
2022/01/15 04:46:31;;;;;;;55.90;23.98;;;1.20;97.10;;;;;;5032094;28;20080;-46
2022/01/15 04:48:57;;;;;;;81.15;24.67;;;1.20;97.10;;;;;;5032318;28;20042;-46
2022/01/15 04:51:24;;;;;;;70.50;25.58;;;1.20;97.10;;;;;;5032229;28;20087;-45
2022/01/15 04:53:51;;;;;;;68.50;25.17;;;1.10;97.30;;;;;;5030853;28;20493;-50
2022/01/15 04:56:18;;;;;;;69.97;25.88;;;1.10;97.60;;;;;;5032095;28;20405;-47
2022/01/15 04:58:44;;;;;;;61.20;24.98;;;1.10;97.50;;;;;;5032215;28;20393;-47
2022/01/15 05:01:11;;;;;;;77.60;24.77;;;1.10;97.30;;;;;;5032014;28;20519;-52
2022/01/15 05:03:38;;;;;;;57.50;25.17;;;1.00;97.30;;;;;;5031854;28;20099;-47
2022/01/15 05:06:05;;;;;;;60.38;25.13;;;1.00;97.70;;;;;;5031881;28;20060;-47
2022/01/15 05:08:32;;;;;;;53.30;25.05;;;1.10;97.40;;;;;;5032444;28;20059;-48
2022/01/15 05:10:59;;;;;;;86.20;25.40;;;1.10;97.60;;;;;;5033584;28;20046;-46
2022/01/15 05:13:30;;;;;;;90.85;24.88;;;1.10;97.60;;;;;;5035541;28;20069;-47
2022/01/15 05:15:57;;;;;;;54.58;25.00;;;1.10;97.60;;;;;;5035618;28;20524;-47
2022/01/15 05:18:24;;;;;;;64.82;25.10;;;1.10;98.00;;;;;;5035526;28;20048;-46
2022/01/15 05:20:51;;;;;;;60.50;24.88;;;1.20;97.70;;;;;;5035448;28;20046;-47
2022/01/15 05:23:17;;;;;;;42.65;23.40;;;1.20;97.60;;;;;;5034125;28;20401;-46
2022/01/15 05:25:44;;;;;;;46.92;24.00;;;1.20;97.80;;;;;;5033959;28;20378;-45
2022/01/15 05:28:11;;;;;;;51.08;25.73;;;1.20;97.70;;;;;;5035498;28;20382;-47
2022/01/15 05:30:38;;;;;;;52.75;24.35;;;1.20;97.70;;;;;;5035239;28;20037;-47
2022/01/15 05:33:05;;;;;;;51.60;24.30;;;1.20;97.60;;;;;;5035909;28;20034;-45
2022/01/15 05:35:31;;;;;;;59.25;25.23;;;1.20;97.70;;;;;;5035566;28;20382;-45
2022/01/15 05:37:58;;;;;;;46.22;24.83;;;1.20;97.60;;;;;;5036587;28;20488;-45
2022/01/15 05:40:25;;;;;;;53.80;26.52;;;1.20;97.60;;;;;;5035075;28;20049;-48
2022/01/15 05:42:52;;;;;;;56.33;23.35;;;1.20;97.60;;;;;;5033673;28;20091;-50
2022/01/15 05:45:19;;;;;;;65.22;26.05;;;1.30;97.50;;;;;;5035194;28;20041;-51
2022/01/15 05:47:46;;;;;;;65.15;24.52;;;1.30;97.60;;;;;;5017310;28;20542;-49
2022/01/15 05:50:13;;;;;;;50.08;26.77;;;1.30;97.60;;;;;;5035025;28;20033;-43
2022/01/15 05:52:39;;;;;;;42.40;26.13;;;1.40;97.50;;;;;;5034809;28;20100;-49
2022/01/15 05:55:06;;;;;;;38.10;25.30;;;1.40;97.20;;;;;;5034907;28;20071;-45
2022/01/15 05:57:33;;;;;;;40.92;25.40;;;1.50;97.30;;;;;;5034762;28;20044;-48
2022/01/15 06:00:00;;;;;;;37.83;25.30;;;1.50;97.20;;;;;;5034883;28;20103;-47
2022/01/15 06:02:27;;;;;;;37.45;24.70;;;1.50;97.20;;;;;;5034647;28;20485;-49
2022/01/15 06:04:53;;;;;;;43.13;25.17;;;1.50;97.10;;;;;;5034786;28;20116;-47
2022/01/15 06:07:20;;;;;;;37.45;24.48;;;1.60;97.20;;;;;;5034852;28;20045;-48
2022/01/15 06:09:47;;;;;;;38.50;25.30;;;1.60;97.20;;;;;;5039408;28;20389;-45
2022/01/15 06:12:14;;;;;;;44.42;25.88;;;1.70;97.30;;;;;;5034594;28;20037;-48
2022/01/15 06:14:41;;;;;;;46.67;26.55;;;1.70;97.30;;;;;;5034567;28;20042;-51
2022/01/15 06:17:08;;;;;;;59.42;27.17;;;1.80;97.40;;;;;;5034477;28;20056;-52
2022/01/15 06:19:35;;;;;;;61.63;28.10;;;1.80;97.70;;;;;;5034428;28;20073;-46
2022/01/15 06:22:02;;;;;;;71.15;28.65;;;1.80;97.90;;;;;;5034433;28;20444;-48
2022/01/15 06:24:29;;;;;;;56.88;26.40;;;1.90;98.20;;;;;;5034417;28;20076;-49
2022/01/15 06:26:56;;;;;;;70.38;26.58;;;2.00;98.50;;;;;;5034191;28;20045;-52
2022/01/15 06:29:23;;;;;;;112.70;25.80;;;2.00;98.70;;;;;;5034360;28;20072;-48
2022/01/15 06:31:50;;;;;;;72.20;24.40;;;2.10;98.70;;;;;;5034186;28;20045;-47
2022/01/15 06:34:16;;;;;;;62.80;24.65;;;2.20;98.70;;;;;;5033996;28;20051;-45
2022/01/15 06:36:43;;;;;;;71.90;24.15;;;2.20;98.70;;;;;;5033973;28;20034;-45
2022/01/15 06:39:10;;;;;;;50.70;24.10;;;2.30;98.90;;;;;;5033785;28;20045;-45
2022/01/15 06:41:37;;;;;;;67.47;23.88;;;2.40;99.10;;;;;;5032666;28;20132;-46
2022/01/15 06:44:03;;;;;;;97.55;24.40;;;2.40;99.00;;;;;;5034053;28;20050;-45
2022/01/15 06:46:30;;;;;;;59.30;21.95;;;2.50;99.10;;;;;;5033794;28;20033;-46
2022/01/15 06:48:57;;;;;;;61.05;22.52;;;2.50;99.00;;;;;;5033748;28;20033;-44
2022/01/15 06:51:25;;;;;;;49.60;21.75;;;2.60;98.90;;;;;;5033774;28;20048;-46
2022/01/15 06:53:52;;;;;;;57.78;22.58;;;2.70;98.70;;;;;;5032640;28;20093;-45
2022/01/15 06:56:18;;;;;;;59.95;23.05;;;2.70;98.70;;;;;;5033810;28;20045;-43
2022/01/15 06:58:46;;;;;;;50.85;23.33;;;2.70;99.00;;;;;;5033862;28;20042;-47
2022/01/15 07:01:13;;;;;;;38.65;21.00;;;2.80;99.30;;;;;;5033643;28;20045;-51
2022/01/15 07:03:39;;;;;;;49.13;23.88;;;2.80;99.20;;;;;;5033325;28;20053;-49
2022/01/15 07:06:06;;;;;;;54.53;26.05;;;2.90;99.20;;;;;;5033349;28;20052;-46
2022/01/15 07:08:33;;;;;;;55.10;24.23;;;2.90;99.30;;;;;;5036504;28;20521;-45
2022/01/15 07:11:00;;;;;;;53.40;23.67;;;3.00;99.20;;;;;;5033480;28;20095;-46
2022/01/15 07:13:29;;;;;;;47.88;24.15;;;3.00;99.40;;;;;;5033322;28;20055;-46
2022/01/15 07:15:56;;;;;;;51.92;25.52;;;3.10;99.30;;;;;;5033425;28;20517;-46
2022/01/15 07:18:23;;;;;;;57.28;25.10;;;3.10;99.30;;;;;;5033314;28;20049;-46
2022/01/15 07:20:51;;;;;;;50.05;25.75;;;3.10;99.40;;;;;;5033343;28;20049;-45
2022/01/15 07:23:18;;;;;;;44.65;24.70;;;3.10;99.40;;;;;;5033431;28;20467;-46
2022/01/15 07:25:44;;;;;;;48.08;24.80;;;3.20;99.40;;;;;;5033296;28;20396;-47
2022/01/15 07:28:11;;;;;;;58.90;26.23;;;3.20;99.30;;;;;;5033035;28;20417;-44
2022/01/15 07:30:38;;;;;;;47.38;24.63;;;3.20;99.20;;;;;;5033125;28;20042;-45
2022/01/15 07:33:05;;;;;;;43.95;24.98;;;3.20;99.30;;;;;;5032548;28;20042;-48
2022/01/15 07:35:32;;;;;;;46.85;25.88;;;3.30;99.50;;;;;;5033136;28;20037;-47
2022/01/15 07:37:58;;;;;;;47.63;25.65;;;3.30;99.50;;;;;;5037406;28;20045;-50
2022/01/15 07:40:30;;;;;;;64.70;26.17;;;3.30;99.40;;;;;;5027505;28;20045;-45
2022/01/15 07:42:57;;;;;;;42.45;25.20;;;3.30;99.30;;;;;;5032986;28;20053;-46
2022/01/15 07:45:23;;;;;;;43.05;26.75;;;3.30;99.30;;;;;;5032906;28;20516;-45
2022/01/15 07:47:50;;;;;;;45.03;26.70;;;3.30;99.30;;;;;;5032764;28;20045;-46
2022/01/15 07:50:23;;;;;;;46.08;26.92;;;3.30;99.20;;;;;;5033016;28;20037;-47
2022/01/15 07:52:50;;;;;;;38.75;25.85;;;3.30;99.40;;;;;;5032858;28;20120;-47
2022/01/15 07:55:17;;;;;;;50.53;27.67;;;3.40;99.40;;;;;;5032997;28;20377;-47
2022/01/15 07:57:59;;;;;;;45.25;26.98;;;3.40;99.50;;;;;;5032871;28;20091;-48
2022/01/15 08:00:26;;;;;;;44.47;28.65;;;3.40;99.50;;;;;;5033109;28;20497;-49
2022/01/15 08:02:54;;;;;;;45.00;27.23;;;3.40;99.40;;;;;;5032521;28;20089;-45
2022/01/15 08:05:21;;;;;;;49.30;29.42;;;3.40;99.30;;;;;;5031673;28;20049;-46
2022/01/15 08:07:48;;;;;;;43.88;28.42;;;3.40;99.30;;;;;;5033829;28;20087;-48
2022/01/15 08:10:15;;;;;;;41.65;27.73;;;3.50;99.40;;;;;;5032569;28;20437;-47
2022/01/15 08:12:42;;;;;;;44.95;28.92;;;3.50;99.30;;;;;;5032783;28;20463;-46
2022/01/15 08:15:12;;;;;;;45.80;27.77;;;3.50;99.20;;;;;;5032580;28;20083;-46
2022/01/15 08:17:39;;;;;;;47.55;29.10;;;3.50;99.10;;;;;;5032580;28;20377;-46
2022/01/15 08:20:06;;;;;;;42.30;28.92;;;3.50;99.10;;;;;;5032657;28;20503;-47
2022/01/15 08:22:33;;;;;;;42.60;29.58;;;3.50;99.30;;;;;;5032669;28;20086;-50
2022/01/15 08:24:59;;;;;;;43.47;29.52;;;3.60;99.30;;;;;;5032415;28;20129;-47
2022/01/15 08:27:26;;;;;;;43.88;29.90;;;3.60;99.20;;;;;;5031275;28;20458;-45
2022/01/15 08:29:53;;;;;;;47.00;30.52;;;3.60;99.10;;;;;;5032559;28;20251;-49
2022/01/15 08:32:20;;;;;;;44.63;28.95;;;3.60;99.10;;;;;;5032562;28;20147;-49
2022/01/15 08:34:47;;;;;;;50.28;26.70;;;3.70;99.10;;;;;;5032503;28;20044;-48
2022/01/15 08:37:13;;;;;;;50.58;25.73;;;3.60;98.70;;;;;;5032233;28;20037;-49
2022/01/15 08:39:40;;;;;;;43.92;26.45;;;3.60;98.60;;;;;;5036033;28;20045;-46
2022/01/15 08:42:09;;;;;;;44.97;26.13;;;3.60;98.70;;;;;;5032504;28;20087;-49
2022/01/15 08:44:40;;;;;;;54.33;28.02;;;3.60;98.60;;;;;;5032335;28;20050;-50
2022/01/15 08:47:07;;;;;;;45.13;27.25;;;3.50;98.60;;;;;;5035850;28;20084;-49
2022/01/15 08:49:34;;;;;;;45.30;27.33;;;3.50;98.70;;;;;;5036408;28;20041;-48
2022/01/15 08:52:01;;;;;;;51.40;26.85;;;3.60;98.90;;;;;;5036037;28;20041;-48
2022/01/15 08:54:28;;;;;;;43.17;27.90;;;3.60;98.80;;;;;;5036116;28;20048;-49
2022/01/15 08:56:55;;;;;;;45.92;28.10;;;3.60;98.80;;;;;;5035954;28;20045;-50
2022/01/15 08:59:23;;;;;;;46.03;27.63;;;3.60;98.70;;;;;;5035945;28;20068;-50
2022/01/15 09:01:50;;;;;;;46.03;28.70;;;3.60;98.80;;;;;;5035858;28;20143;-48
2022/01/15 09:04:17;;;;;;;52.10;29.10;;;3.60;98.90;;;;;;5035608;28;20060;-46
2022/01/15 09:06:44;;;;;;;48.78;28.25;;;3.60;98.70;;;;;;5035647;28;20136;-49
2022/01/15 09:09:10;;;;;;;51.67;28.13;;;3.60;98.60;;;;;;5042005;28;20049;-46
2022/01/15 09:11:37;;;;;;;44.90;28.70;;;3.60;98.40;;;;;;5035691;28;20041;-48
2022/01/15 09:14:04;;;;;;;47.10;29.55;;;3.60;98.50;;;;;;5035689;28;20396;-48
2022/01/15 09:16:31;;;;;;;48.88;28.25;;;3.70;98.30;;;;;;5035537;28;20041;-45
2022/01/15 09:18:58;;;;;;;58.17;28.88;;;3.70;98.40;;;;;;5035344;28;20141;-44
2022/01/15 09:21:25;;;;;;;44.85;28.20;;;3.60;98.30;;;;;;5035078;28;20468;-47
2022/01/15 09:23:51;;;;;;;61.28;30.25;;;3.60;98.50;;;;;;5035530;28;20049;-52
2022/01/15 09:26:22;;;;;;;49.15;30.10;;;3.60;98.50;;;;;;5034150;28;20046;-45
2022/01/15 09:31:34;;;;;;;50.70;29.17;;;3.70;98.50;;;;;;5035128;28;20355;-49
2022/01/15 09:34:01;;;;;;;50.67;29.38;;;3.70;98.30;;;;;;5035277;28;20045;-44
2022/01/15 09:36:28;;;;;;;46.08;28.65;;;3.80;98.30;;;;;;5035157;28;20069;-45
2022/01/15 09:38:55;;;;;;;52.60;31.08;;;3.90;98.20;;;;;;5036876;28;20071;-46
2022/01/15 09:41:22;;;;;;;49.15;30.30;;;3.90;98.30;;;;;;5035175;28;20041;-46
2022/01/15 09:43:48;;;;;;;51.50;30.90;;;3.90;98.20;;;;;;5035141;28;20041;-45
2022/01/15 09:46:15;;;;;;;49.50;30.05;;;4.00;98.40;;;;;;5034853;28;20037;-44
2022/01/15 09:48:43;;;;;;;54.28;32.08;;;4.10;98.30;;;;;;5035161;28;20040;-44
2022/01/15 09:51:10;;;;;;;51.88;31.40;;;4.10;98.20;;;;;;5035175;28;20041;-45
2022/01/15 09:53:36;;;;;;;53.78;32.15;;;4.10;98.20;;;;;;5035099;28;20042;-44
2022/01/15 09:56:06;;;;;;;53.55;32.90;;;4.10;98.30;;;;;;5034554;28;20040;-45
2022/01/15 09:58:33;;;;;;;49.97;31.98;;;4.20;98.30;;;;;;5034823;28;20041;-45
2022/01/15 10:01:01;;;;;;;50.80;31.88;;;4.20;98.20;;;;;;5034830;28;20046;-44
2022/01/15 10:03:29;;;;;;;46.22;29.65;;;4.30;98.10;;;;;;5033305;28;20061;-51
2022/01/15 10:05:55;;;;;;;47.17;29.40;;;4.30;98.00;;;;;;5034867;28;20111;-45
2022/01/15 10:08:22;;;;;;;48.08;32.33;;;4.40;97.90;;;;;;5038670;28;20046;-46
2022/01/15 10:10:49;;;;;;;47.97;32.25;;;4.40;97.80;;;;;;5034778;28;20038;-49
2022/01/15 10:13:16;;;;;;;48.30;31.85;;;4.50;97.60;;;;;;5034365;28;20042;-49
2022/01/15 10:15:43;;;;;;;53.65;31.83;;;4.50;97.50;;;;;;5034598;28;20042;-49
2022/01/15 10:18:10;;;;;;;49.08;31.27;;;4.50;97.50;;;;;;5034400;28;20128;-51
2022/01/15 10:20:37;;;;;;;48.38;31.02;;;4.60;97.30;;;;;;5033300;28;20052;-48
2022/01/15 10:23:03;;;;;;;46.00;30.67;;;4.70;97.50;;;;;;5034476;28;20076;-51
2022/01/15 10:25:33;;;;;;;46.92;31.33;;;4.60;97.30;;;;;;5034378;28;20107;-47
2022/01/15 10:28:00;;;;;;;42.97;29.42;;;4.60;97.40;;;;;;5034233;28;20694;-50
2022/01/15 10:30:27;;;;;;;47.58;32.83;;;4.60;97.40;;;;;;5034222;28;20041;-46
2022/01/15 10:32:54;;;;;;;49.30;33.65;;;4.70;97.30;;;;;;5032976;28;20060;-50
2022/01/15 10:35:22;;;;;;;49.92;32.22;;;4.70;97.40;;;;;;5034307;28;20046;-51
2022/01/15 10:37:49;;;;;;;48.78;32.05;;;4.70;97.20;;;;;;5038568;28;20049;-47
2022/01/15 10:40:16;;;;;;;44.40;30.58;;;4.70;97.20;;;;;;5036092;28;20041;-50
2022/01/15 10:42:43;;;;;;;46.20;31.02;;;4.80;97.00;;;;;;5034299;28;20503;-48
2022/01/15 10:45:09;;;;;;;49.40;31.45;;;4.80;97.10;;;;;;5032763;28;20041;-50
2022/01/15 10:47:36;;;;;;;48.22;32.22;;;4.80;97.10;;;;;;5033919;28;20038;-48
2022/01/15 10:50:03;;;;;;;46.72;33.15;;;4.90;96.90;;;;;;5033922;28;20037;-44
2022/01/15 10:52:30;;;;;;;49.83;33.78;;;4.90;96.90;;;;;;5034145;28;20037;-46
2022/01/15 10:55:00;;;;;;;53.47;36.60;;;4.90;96.90;;;;;;5033905;28;20086;-47
2022/01/15 10:57:27;;;;;;;49.95;34.33;;;4.90;96.90;;;;;;5032546;28;20065;-47
2022/01/15 10:59:54;;;;;;;52.45;34.75;;;4.90;97.10;;;;;;5032634;28;20048;-49
2022/01/15 11:02:20;;;;;;;46.83;32.40;;;4.90;97.00;;;;;;5033699;28;20049;-46
2022/01/15 11:04:47;;;;;;;45.08;31.75;;;5.00;97.10;;;;;;5033847;28;20040;-46
2022/01/15 11:07:14;;;;;;;48.38;33.38;;;4.90;97.00;;;;;;5033572;28;20128;-50
2022/01/15 11:09:41;;;;;;;49.03;34.92;;;4.90;96.90;;;;;;5035024;28;20447;-49
2022/01/15 11:12:09;;;;;;;48.95;33.53;;;4.90;97.00;;;;;;5033599;28;20043;-44
2022/01/15 11:14:35;;;;;;;49.50;33.55;;;5.00;97.10;;;;;;5033543;28;20042;-43
2022/01/15 11:17:02;;;;;;;49.10;33.45;;;5.00;97.20;;;;;;5033426;28;20044;-42
2022/01/15 11:19:29;;;;;;;46.83;33.28;;;4.90;97.00;;;;;;5033578;28;20052;-46
2022/01/15 11:21:56;;;;;;;47.45;33.50;;;5.00;97.10;;;;;;5033426;28;20458;-46
2022/01/15 11:24:23;;;;;;;48.85;34.08;;;5.00;97.40;;;;;;5033361;28;20064;-51
2022/01/15 11:26:52;;;;;;;47.78;33.70;;;5.10;97.00;;;;;;5033312;28;20041;-45
2022/01/15 11:29:18;;;;;;;45.17;33.00;;;5.20;97.30;;;;;;5033306;28;20049;-45
2022/01/15 11:31:45;;;;;;;47.30;33.60;;;5.30;96.90;;;;;;5033268;28;20048;-45
2022/01/15 11:34:14;;;;;;;47.30;34.40;;;5.40;97.10;;;;;;5033194;28;20048;-48
2022/01/15 11:36:41;;;;;;;44.58;33.58;;;5.40;97.00;;;;;;5032909;28;20045;-45
2022/01/15 11:39:08;;;;;;;45.80;34.85;;;5.50;96.70;;;;;;5037789;28;20404;-48
2022/01/15 11:41:37;;;;;;;47.22;33.78;;;5.60;96.70;;;;;;5036803;28;20150;-47
2022/01/15 11:44:03;;;;;;;46.60;34.75;;;5.60;96.60;;;;;;5033140;28;20401;-49
2022/01/15 11:46:31;;;;;;;45.83;36.08;;;5.70;96.60;;;;;;5032947;28;20053;-49
2022/01/15 11:48:57;;;;;;;45.03;35.53;;;5.70;96.40;;;;;;5032993;28;20041;-51
2022/01/15 11:51:24;;;;;;;45.88;35.08;;;5.80;96.10;;;;;;5032860;28;20043;-47
2022/01/15 11:53:54;;;;;;;45.60;35.20;;;5.80;95.90;;;;;;5032968;28;20042;-46
2022/01/15 11:56:21;;;;;;;47.38;35.05;;;5.80;96.20;;;;;;5033009;28;20399;-46
2022/01/15 11:58:48;;;;;;;46.00;35.60;;;5.80;96.00;;;;;;5032874;28;20045;-50
2022/01/15 12:01:14;;;;;;;47.55;35.10;;;5.90;95.90;;;;;;5032863;28;20047;-45
2022/01/15 12:03:41;;;;;;;41.78;33.42;;;5.80;95.90;;;;;;5032603;28;20090;-47
2022/01/15 12:06:08;;;;;;;45.50;32.60;;;5.90;95.50;;;;;;5032656;28;20128;-47
2022/01/15 12:08:36;;;;;;;42.17;34.28;;;6.00;95.70;;;;;;5032659;28;20050;-46
2022/01/15 12:11:02;;;;;;;42.03;31.98;;;5.90;95.50;;;;;;5032971;28;20041;-46
2022/01/15 12:13:31;;;;;;;42.35;32.08;;;6.00;95.90;;;;;;5032673;28;20033;-45
2022/01/15 12:15:58;;;;;;;38.08;30.95;;;6.10;95.70;;;;;;5031707;28;20382;-48
2022/01/15 12:18:25;;;;;;;38.25;29.52;;;6.00;94.60;;;;;;5032560;28;20044;-48
2022/01/15 12:20:54;;;;;;;32.70;28.75;;;6.00;93.30;;;;;;5035895;28;20046;-46
2022/01/15 12:23:24;;;;;;;37.83;29.70;;;5.90;92.80;;;;;;5036842;28;20048;-44
2022/01/15 12:25:51;;;;;;;33.42;28.65;;;6.00;93.30;;;;;;5039025;28;20476;-46
2022/01/15 12:28:18;;;;;;;34.05;27.58;;;5.90;92.90;;;;;;5038994;28;20095;-47
2022/01/15 12:30:48;;;;;;;35.83;28.67;;;5.90;92.20;;;;;;5036667;28;20037;-46
2022/01/15 12:33:21;;;;;;;33.83;28.10;;;5.90;92.40;;;;;;5036691;28;20124;-45
2022/01/15 12:35:57;;;;;;;32.25;27.75;;;5.90;92.30;;;;;;5036443;28;20042;-45
2022/01/15 12:38:27;;;;;;;35.45;28.13;;;5.90;92.30;;;;;;5036495;28;20041;-48
2022/01/15 12:40:54;;;;;;;32.78;27.33;;;5.90;91.90;;;;;;5028966;28;20069;-44
2022/01/15 12:43:21;;;;;;;35.30;29.20;;;5.90;91.80;;;;;;5032117;28;20041;-51
2022/01/15 12:45:47;;;;;;;34.72;28.95;;;5.90;92.20;;;;;;5031726;28;20069;-48
2022/01/15 12:48:14;;;;;;;35.75;29.60;;;5.90;92.10;;;;;;5031602;28;20449;-50
2022/01/15 12:50:42;;;;;;;38.20;29.33;;;5.90;92.00;;;;;;5036874;28;20068;-45
2022/01/15 12:53:09;;;;;;;33.85;28.00;;;5.80;91.50;;;;;;5036632;28;20043;-47
2022/01/15 12:55:35;;;;;;;35.22;27.42;;;5.80;91.70;;;;;;5037284;28;20042;-46
2022/01/15 12:58:03;;;;;;;35.50;28.15;;;5.80;92.00;;;;;;5034842;28;20079;-46